createdAt,value
2017-02-23T00:04:47.972Z,45
2017-02-23T00:14:58.771Z,45
2017-02-23T00:25:09.554Z,45
2017-02-23T00:35:20.286Z,45
2017-02-23T00:45:31.066Z,45
2017-02-23T00:55:41.782Z,45
2017-02-23T01:05:52.499Z,45
2017-02-23T01:16:03.263Z,45
2017-02-23T01:26:14.024Z,45
2017-02-23T01:36:24.808Z,45
2017-02-23T01:46:35.549Z,45
2017-02-23T01:56:46.342Z,45
2017-02-23T02:06:57.203Z,45
2017-02-23T02:17:08.089Z,45
2017-02-23T02:27:18.997Z,45
2017-02-23T02:37:29.924Z,45
2017-02-23T02:47:40.876Z,45
2017-02-23T02:57:51.779Z,45
2017-02-23T03:08:02.794Z,45
2017-02-23T03:18:13.766Z,45
2017-02-23T03:28:24.703Z,45
2017-02-23T03:38:35.633Z,45
2017-02-23T03:48:46.515Z,45
2017-02-23T03:58:57.384Z,45
2017-02-23T04:09:08.359Z,45
2017-02-23T04:19:19.142Z,45
2017-02-23T04:29:30.039Z,45
2017-02-23T04:39:40.933Z,45
2017-02-23T04:49:51.811Z,45
2017-02-23T05:00:02.687Z,45
2017-02-23T05:10:13.580Z,45
2017-02-23T05:20:24.471Z,45
2017-02-23T05:30:35.341Z,45
2017-02-23T05:40:46.192Z,45
2017-02-23T05:50:57.038Z,45
2017-02-23T06:01:07.817Z,45
2017-02-23T06:11:18.537Z,45
2017-02-23T06:21:29.271Z,45
2017-02-23T06:31:39.984Z,45
2017-02-23T06:41:50.709Z,45
2017-02-23T06:52:01.416Z,45
2017-02-23T07:02:12.098Z,45
2017-02-23T07:12:22.797Z,8.8
2017-02-23T07:22:33.485Z,8.7
2017-02-23T07:32:44.116Z,8.7
2017-02-23T07:42:54.794Z,8.6
2017-02-23T07:53:05.452Z,8.5
2017-02-23T08:03:16.161Z,8.5
2017-02-23T08:13:26.825Z,45
2017-02-23T08:23:37.469Z,45
2017-02-23T08:33:48.090Z,45
2017-02-23T08:43:58.764Z,45
2017-02-23T08:54:09.411Z,45
2017-02-23T09:04:20.079Z,45
2017-02-23T09:14:30.764Z,45
2017-02-23T09:24:41.417Z,45
2017-02-23T09:34:52.113Z,45
2017-02-23T09:45:02.834Z,45
2017-02-23T09:55:13.556Z,45
2017-02-23T10:05:24.250Z,45
2017-02-23T10:15:34.959Z,45
2017-02-23T10:25:45.638Z,45
2017-02-23T10:35:56.337Z,45
2017-02-23T10:46:07.097Z,45
2017-02-23T10:56:17.833Z,45
2017-02-23T11:06:28.484Z,45
2017-02-23T11:16:39.057Z,45
2017-02-23T11:26:49.541Z,45
2017-02-23T11:37:00.002Z,45
2017-02-23T11:47:10.490Z,45
2017-02-23T11:57:21.028Z,45
2017-02-23T12:07:31.564Z,45
2017-02-23T12:17:42.006Z,45
2017-02-23T12:27:52.558Z,45
2017-02-23T12:48:13.567Z,45
2017-02-23T12:58:24.055Z,45
2017-02-23T13:08:34.544Z,45
2017-02-23T13:18:45.057Z,45
2017-02-23T13:28:55.663Z,8.6
2017-02-23T13:39:17.869Z,8.5
2017-02-23T13:59:27.350Z,8.6
2017-02-23T14:09:37.928Z,8.9
2017-02-23T14:19:48.421Z,9.4
2017-02-23T14:29:58.796Z,9.6
2017-02-23T14:40:08.773Z,9.6
2017-02-23T14:50:18.577Z,9.7
2017-02-23T15:00:28.532Z,9.9
2017-02-23T15:10:38.584Z,9.8
2017-02-23T15:20:48.781Z,10.1
2017-02-23T15:30:59.151Z,10.2
2017-02-23T15:41:09.425Z,21.1
2017-02-23T15:51:19.664Z,10.2
2017-02-23T16:01:30.078Z,9.7
2017-02-23T16:11:40.531Z,9.6
2017-02-23T16:21:51.056Z,10
2017-02-23T16:32:01.620Z,9.7
2017-02-23T16:42:12.174Z,8.8
2017-02-23T16:49:36.678Z,8.4
2017-02-23T16:59:47.392Z,7.8
2017-02-23T17:09:58.225Z,7.5
2017-02-23T17:20:09.077Z,7.3
2017-02-23T17:30:19.983Z,7.6
2017-02-23T17:40:30.865Z,7.7
2017-02-23T17:50:41.774Z,22.9
2017-02-23T18:00:52.793Z,7.7
2017-02-23T18:11:03.819Z,7.7
2017-02-23T18:21:14.792Z,7.7
2017-02-23T18:31:25.932Z,7.1
2017-02-23T18:41:36.861Z,7.1
2017-02-23T18:51:47.898Z,7.6
2017-02-23T19:01:59.000Z,7.7
2017-02-23T19:12:09.920Z,7.8
2017-02-23T19:22:20.870Z,7.8
2017-02-23T19:32:31.885Z,8.1
2017-02-23T19:42:42.795Z,7.8
2017-02-23T19:52:53.696Z,7.5
2017-02-23T20:03:04.651Z,7.5
2017-02-23T20:13:15.603Z,8.1
2017-02-23T20:23:26.571Z,8.1
2017-02-23T20:33:37.567Z,7.1
2017-02-23T20:43:48.547Z,6.5
2017-02-23T20:53:59.645Z,6.5
2017-02-23T21:04:10.750Z,6.8
2017-02-23T21:14:21.858Z,7
2017-02-23T21:24:32.859Z,6.9
2017-02-23T21:34:43.816Z,6.6
2017-02-23T21:44:54.851Z,6.5
2017-02-23T21:55:05.884Z,6.2
2017-02-23T22:05:17.008Z,6.1
2017-02-23T22:15:28.321Z,6.1
2017-02-23T22:25:39.481Z,5.9
2017-02-23T22:35:50.772Z,5.6
2017-02-23T22:46:02.093Z,5.5
2017-02-23T22:56:13.588Z,5.3
2017-02-23T23:06:24.818Z,5.1
2017-02-23T23:16:36.189Z,4.9
2017-02-23T23:26:47.571Z,4.8
2017-02-23T23:36:58.990Z,4.5
2017-02-23T23:47:10.431Z,4.4
2017-02-23T23:57:21.933Z,4.3
